• Join FlightAware (Why Join?)
  • Login
  • US Flag 
01:57PM EDT


 

Airport Tracker/Info


-or-


 

Live Flight TrackerFlight Track Log ✈ UCA3599 ✈ 18-Sep-2013 ✈ KBGM - KIAD

Flight Track Log - Related Links

Times and Time Zones

All times are in EDT time to prevent confusion due to time zone crossing. See the UCA3599 flight status page for this flight to view local times or setup timezone preferences in your user account.

Time Position Orientation Groundspeed Altitude Reporting Facility
EDT Latitude Longitude Course Direction KTS MPH feet Rate Location/Type
06:12AM 42.1717 -75.9697 211° Southwest 255 293 3,100  Level New York Center
06:13AM 42.1300 -75.9747 185° South 173 199 4,400 1,320 Climbing New York Center
06:14AM 42.0947 -76.0194 223° Southwest 180 207 5,800 1,440 Climbing New York Center
06:15AM 42.0489 -76.0661 217° Southwest 190 219 7,300 1,200 Climbing New York Center
06:16AM 42.0033 -76.1097 215° Southwest 197 227 8,200 1,080 Climbing New York Center
06:17AM 41.8338 -76.1577 212° Southwest  Level Estimated
06:17AM 41.9553 -76.1589 217° Southwest 211 243 9,500  Level New York Center
06:18AM 41.7713 -76.1872 211° Southwest  Level Estimated
06:18AM 41.9117 -76.2028 217° Southwest 211 243 10,700  Level New York Center
06:19AM 41.8636 -76.2517 217° Southwest 211 243 11,900 600 Climbing New York Center
06:20AM 41.8044 -76.3108 217° Southwest 230 265 12,000 420 Climbing New York Center
06:21AM 41.7475 -76.3703 218° Southwest 257 296 12,800 960 Climbing New York Center
06:22AM 41.6975 -76.4158 214° Southwest 251 289 14,000 600 Climbing New York Center
06:23AM 41.6428 -76.4725 218° Southwest 257 296 14,000  Level New York Center
06:24AM 41.5622 -76.5044 197° South 268 308 14,000  Level New York Center
06:25AM 41.4894 -76.5397 200° South 280 322 14,100 780 Climbing New York Center
06:26AM 41.4194 -76.5669 196° South 274 315 15,600 900 Climbing New York Center
06:27AM 41.3622 -76.5897 197° South 253 291 16,000 180 Climbing New York Center
06:28AM 41.2919 -76.6194 198° South 259 298 16,000  Level New York Center
06:29AM 41.2108 -76.6567 199° South 276 318 16,000  Level New York Center
06:30AM 41.1428 -76.6864 198° South 281 323 16,000  Level New York Center
06:31AM 41.0597 -76.7206 197° South 286 329 16,000  Level New York Center
06:32AM 40.9853 -76.7525 198° South 286 329 16,000  Level New York Center
06:33AM 40.9192 -76.7797 197° South 286 329 16,000  Level New York Center
06:34AM 40.8447 -76.8114 198° South 291 335 16,000  Level New York Center
06:35AM 40.7639 -76.8456 198° South 291 335 16,000  Level New York Center
06:36AM 40.6956 -76.8750 198° South 291 335 16,000  Level New York Center
06:37AM 40.6147 -76.9061 196° South 291 335 16,000  Level New York Center
06:38AM 40.5486 -76.9358 199° South 291 335 16,000  Level New York Center
06:39AM 40.4678 -76.9694 198° South 291 335 16,000  Level New York Center
06:40AM 40.3994 -76.9961 197° South 286 329 16,000 -540 Level New York Center
06:42AM 40.2667 -77.0500 197° South 304 350 14,700 -900 Descending Potomac TRACON
06:43AM 40.1833 -77.0833 197° South 302 348 13,700 -1,260 Descending Potomac TRACON
06:44AM 40.1167 -77.1167 201° Southwest 295 339 12,400 -1,620 Descending Potomac TRACON
06:45AM 40.0500 -77.1500 201° Southwest 285 328 10,700 -1,620 Descending Potomac TRACON
06:46AM 39.9833 -77.1833 201° Southwest 280 322 9,300 -900 Descending Potomac TRACON
06:47AM 39.9000 -77.2000 189° South 270 311 9,000 -540 Descending Potomac TRACON
06:48AM 39.8333 -77.2333 201° Southwest 274 315 8,300 -540 Descending Potomac TRACON
06:49AM 39.7667 -77.2667 201° Southwest 272 313 8,000 -420 Descending Potomac TRACON
06:50AM 39.7000 -77.3000 201° Southwest 265 305 7,600 -600 Descending Potomac TRACON
06:51AM 39.6333 -77.3333 201° Southwest 272 313 6,900 -720 Descending Potomac TRACON
06:52AM 39.5667 -77.3833 210° Southwest 264 304 6,300 -480 Descending Potomac TRACON
06:53AM 39.5000 -77.4167 201° Southwest 260 299 6,000 -480 Descending Potomac TRACON
06:53AM 39.4500 -77.4333 194° South 260 299 5,400 -720 Descending Potomac TRACON
06:54AM 39.3833 -77.4333 180° South 260 299 4,800 -780 Descending Potomac TRACON
06:55AM 39.3000 -77.4333 180° South 249 287 4,000 -840 Descending Potomac TRACON
06:56AM 39.2333 -77.4333 180° South 249 287 3,200 -540 Descending Potomac TRACON
06:57AM 39.1667 -77.4333 180° South 242 278 3,000 -120 Descending Potomac TRACON
06:58AM 39.1167 -77.4333 180° South 227 261 3,000 -480 Level Potomac TRACON
06:59AM 39.0500 -77.4333 180° South 202 232 2,200 -900 Descending Potomac TRACON
07:00AM 39.0000 -77.4333 180° South 160 184 1,300 -840 Descending Potomac TRACON
07:01AM 38.9667 -77.4333 180° South 122 140 600 -720 Descending Potomac TRACON
07:03AM 38.9474 -77.4599 180° South  Level Estimated
07:10AM 38.9474 -77.4599 349° North  Level Estimated
07:11AM 38.9474 -77.4599 349° North  Level Estimated
07:12AM 38.9474 -77.4599 349° North  Level Estimated
07:13AM 38.9474 -77.4599 349° North  Level Estimated